sensor_id;sensor_type;location;lat;lon;timestamp;P1;durP1;ratioP1;P2;durP2;ratioP2
5831;SDS011;50943;51.448;7.646;2023-02-13T00:00:23;45.73;;;22.13;;
5831;SDS011;50943;51.448;7.646;2023-02-13T00:02:50;48.07;;;21.20;;
5831;SDS011;50943;51.448;7.646;2023-02-13T00:05:17;43.50;;;20.50;;
5831;SDS011;50943;51.448;7.646;2023-02-13T00:07:44;38.50;;;20.20;;
5831;SDS011;50943;51.448;7.646;2023-02-13T00:10:11;42.80;;;19.80;;
5831;SDS011;50943;51.448;7.646;2023-02-13T00:12:38;39.20;;;19.17;;
5831;SDS011;50943;51.448;7.646;2023-02-13T00:15:05;39.70;;;19.20;;
5831;SDS011;50943;51.448;7.646;2023-02-13T00:17:33;34.73;;;18.03;;
5831;SDS011;50943;51.448;7.646;2023-02-13T00:20:02;35.60;;;18.47;;
5831;SDS011;50943;51.448;7.646;2023-02-13T00:22:35;34.93;;;19.23;;
5831;SDS011;50943;51.448;7.646;2023-02-13T00:25:02;36.23;;;19.23;;
5831;SDS011;50943;51.448;7.646;2023-02-13T00:27:28;34.27;;;17.30;;
5831;SDS011;50943;51.448;7.646;2023-02-13T00:29:57;32.07;;;17.50;;
5831;SDS011;50943;51.448;7.646;2023-02-13T00:32:36;31.90;;;17.30;;
5831;SDS011;50943;51.448;7.646;2023-02-13T00:35:03;32.97;;;17.60;;
5831;SDS011;50943;51.448;7.646;2023-02-13T00:37:30;32.30;;;16.47;;
5831;SDS011;50943;51.448;7.646;2023-02-13T00:39:56;34.07;;;16.50;;
5831;SDS011;50943;51.448;7.646;2023-02-13T00:42:24;29.13;;;15.97;;
5831;SDS011;50943;51.448;7.646;2023-02-13T00:44:51;36.20;;;17.80;;
5831;SDS011;50943;51.448;7.646;2023-02-13T00:47:17;33.67;;;16.63;;
5831;SDS011;50943;51.448;7.646;2023-02-13T00:49:48;34.53;;;16.80;;
5831;SDS011;50943;51.448;7.646;2023-02-13T00:52:15;31.37;;;14.90;;
5831;SDS011;50943;51.448;7.646;2023-02-13T00:54:41;30.63;;;14.47;;
5831;SDS011;50943;51.448;7.646;2023-02-13T00:57:08;27.43;;;13.50;;
5831;SDS011;50943;51.448;7.646;2023-02-13T00:59:34;25.53;;;13.17;;
5831;SDS011;50943;51.448;7.646;2023-02-13T01:02:01;26.40;;;13.13;;
5831;SDS011;50943;51.448;7.646;2023-02-13T01:04:27;24.80;;;12.63;;
5831;SDS011;50943;51.448;7.646;2023-02-13T01:06:55;24.00;;;12.30;;
5831;SDS011;50943;51.448;7.646;2023-02-13T01:09:24;20.60;;;11.00;;
5831;SDS011;50943;51.448;7.646;2023-02-13T01:11:52;23.80;;;12.80;;
5831;SDS011;50943;51.448;7.646;2023-02-13T01:14:21;20.63;;;11.30;;
5831;SDS011;50943;51.448;7.646;2023-02-13T01:16:48;22.30;;;11.83;;
5831;SDS011;50943;51.448;7.646;2023-02-13T01:19:16;24.50;;;12.00;;
5831;SDS011;50943;51.448;7.646;2023-02-13T01:21:45;28.43;;;11.37;;
5831;SDS011;50943;51.448;7.646;2023-02-13T01:24:14;21.07;;;9.50;;
5831;SDS011;50943;51.448;7.646;2023-02-13T01:26:42;16.93;;;9.63;;
5831;SDS011;50943;51.448;7.646;2023-02-13T01:29:11;13.90;;;8.10;;
5831;SDS011;50943;51.448;7.646;2023-02-13T01:31:37;11.60;;;6.90;;
5831;SDS011;50943;51.448;7.646;2023-02-13T01:34:04;11.67;;;6.90;;
5831;SDS011;50943;51.448;7.646;2023-02-13T01:36:31;15.43;;;7.00;;
5831;SDS011;50943;51.448;7.646;2023-02-13T01:38:58;12.60;;;7.00;;
5831;SDS011;50943;51.448;7.646;2023-02-13T01:41:26;13.40;;;7.00;;
5831;SDS011;50943;51.448;7.646;2023-02-13T01:43:54;11.10;;;5.60;;
5831;SDS011;50943;51.448;7.646;2023-02-13T01:46:23;11.10;;;5.60;;
5831;SDS011;50943;51.448;7.646;2023-02-13T01:48:55;11.90;;;5.80;;
5831;SDS011;50943;51.448;7.646;2023-02-13T01:51:24;9.07;;;4.93;;
5831;SDS011;50943;51.448;7.646;2023-02-13T01:53:55;10.73;;;5.10;;
5831;SDS011;50943;51.448;7.646;2023-02-13T01:56:26;8.50;;;5.73;;
5831;SDS011;50943;51.448;7.646;2023-02-13T01:58:57;8.67;;;4.80;;
5831;SDS011;50943;51.448;7.646;2023-02-13T02:01:26;7.53;;;4.20;;
5831;SDS011;50943;51.448;7.646;2023-02-13T02:03:55;7.37;;;4.17;;
5831;SDS011;50943;51.448;7.646;2023-02-13T02:06:25;6.93;;;4.10;;
5831;SDS011;50943;51.448;7.646;2023-02-13T02:08:52;8.33;;;4.57;;
5831;SDS011;50943;51.448;7.646;2023-02-13T02:11:23;7.10;;;4.37;;
5831;SDS011;50943;51.448;7.646;2023-02-13T02:13:55;8.10;;;4.70;;
5831;SDS011;50943;51.448;7.646;2023-02-13T02:16:23;6.40;;;4.07;;
5831;SDS011;50943;51.448;7.646;2023-02-13T02:18:50;7.83;;;4.00;;
5831;SDS011;50943;51.448;7.646;2023-02-13T02:21:34;7.10;;;4.27;;
5831;SDS011;50943;51.448;7.646;2023-02-13T02:24:27;7.50;;;4.60;;
5831;SDS011;50943;51.448;7.646;2023-02-13T02:27:24;9.17;;;4.63;;
5831;SDS011;50943;51.448;7.646;2023-02-13T02:30:15;7.30;;;4.20;;
5831;SDS011;50943;51.448;7.646;2023-02-13T02:33:03;6.97;;;4.03;;
5831;SDS011;50943;51.448;7.646;2023-02-13T02:35:40;7.53;;;3.60;;
5831;SDS011;50943;51.448;7.646;2023-02-13T02:38:17;8.10;;;4.30;;
5831;SDS011;50943;51.448;7.646;2023-02-13T02:40:56;10.37;;;4.40;;
5831;SDS011;50943;51.448;7.646;2023-02-13T02:43:33;7.47;;;3.90;;
5831;SDS011;50943;51.448;7.646;2023-02-13T02:46:10;5.90;;;4.00;;
5831;SDS011;50943;51.448;7.646;2023-02-13T02:48:42;7.90;;;4.10;;
5831;SDS011;50943;51.448;7.646;2023-02-13T02:51:32;6.80;;;3.93;;
5831;SDS011;50943;51.448;7.646;2023-02-13T02:54:05;5.80;;;3.57;;
5831;SDS011;50943;51.448;7.646;2023-02-13T02:56:56;6.60;;;4.17;;
5831;SDS011;50943;51.448;7.646;2023-02-13T02:59:24;5.10;;;3.10;;
5831;SDS011;50943;51.448;7.646;2023-02-13T03:02:12;6.20;;;3.33;;
5831;SDS011;50943;51.448;7.646;2023-02-13T03:04:57;7.30;;;3.90;;
5831;SDS011;50943;51.448;7.646;2023-02-13T03:07:45;5.60;;;3.40;;
5831;SDS011;50943;51.448;7.646;2023-02-13T03:10:15;5.50;;;3.30;;
5831;SDS011;50943;51.448;7.646;2023-02-13T03:13:04;6.03;;;3.30;;
5831;SDS011;50943;51.448;7.646;2023-02-13T03:15:47;6.40;;;3.23;;
5831;SDS011;50943;51.448;7.646;2023-02-13T03:18:34;5.07;;;3.00;;
5831;SDS011;50943;51.448;7.646;2023-02-13T03:21:25;4.83;;;2.83;;
5831;SDS011;50943;51.448;7.646;2023-02-13T03:24:19;5.40;;;3.20;;
5831;SDS011;50943;51.448;7.646;2023-02-13T03:26:52;6.60;;;3.00;;
5831;SDS011;50943;51.448;7.646;2023-02-13T03:29:26;5.13;;;2.83;;
5831;SDS011;50943;51.448;7.646;2023-02-13T03:32:17;3.50;;;2.50;;
5831;SDS011;50943;51.448;7.646;2023-02-13T03:34:47;5.40;;;3.07;;
5831;SDS011;50943;51.448;7.646;2023-02-13T03:37:39;4.53;;;2.57;;
5831;SDS011;50943;51.448;7.646;2023-02-13T03:40:23;3.70;;;2.40;;
5831;SDS011;50943;51.448;7.646;2023-02-13T03:42:54;4.30;;;2.60;;
5831;SDS011;50943;51.448;7.646;2023-02-13T03:45:26;3.93;;;2.63;;
5831;SDS011;50943;51.448;7.646;2023-02-13T03:48:11;4.17;;;2.80;;
5831;SDS011;50943;51.448;7.646;2023-02-13T03:51:16;4.60;;;2.77;;
5831;SDS011;50943;51.448;7.646;2023-02-13T03:53:45;4.37;;;2.70;;
5831;SDS011;50943;51.448;7.646;2023-02-13T03:56:17;4.40;;;2.90;;
5831;SDS011;50943;51.448;7.646;2023-02-13T03:59:02;5.27;;;3.23;;
5831;SDS011;50943;51.448;7.646;2023-02-13T04:01:43;5.67;;;3.20;;
5831;SDS011;50943;51.448;7.646;2023-02-13T04:04:16;6.50;;;3.70;;
5831;SDS011;50943;51.448;7.646;2023-02-13T04:06:48;5.37;;;3.60;;
5831;SDS011;50943;51.448;7.646;2023-02-13T04:09:18;5.50;;;3.90;;
5831;SDS011;50943;51.448;7.646;2023-02-13T04:11:52;5.50;;;3.60;;
5831;SDS011;50943;51.448;7.646;2023-02-13T04:14:23;7.00;;;4.03;;
5831;SDS011;50943;51.448;7.646;2023-02-13T04:16:51;5.23;;;3.20;;
5831;SDS011;50943;51.448;7.646;2023-02-13T04:19:29;6.67;;;4.10;;
5831;SDS011;50943;51.448;7.646;2023-02-13T04:21:58;6.20;;;3.70;;
5831;SDS011;50943;51.448;7.646;2023-02-13T04:24:27;6.37;;;4.37;;
5831;SDS011;50943;51.448;7.646;2023-02-13T04:26:54;6.27;;;4.17;;
5831;SDS011;50943;51.448;7.646;2023-02-13T04:29:21;7.80;;;4.60;;
5831;SDS011;50943;51.448;7.646;2023-02-13T04:31:47;6.93;;;4.40;;
5831;SDS011;50943;51.448;7.646;2023-02-13T04:34:14;7.33;;;4.23;;
5831;SDS011;50943;51.448;7.646;2023-02-13T04:36:45;7.67;;;4.70;;
5831;SDS011;50943;51.448;7.646;2023-02-13T04:39:12;6.83;;;4.50;;
5831;SDS011;50943;51.448;7.646;2023-02-13T04:41:41;6.60;;;4.30;;
5831;SDS011;50943;51.448;7.646;2023-02-13T04:44:15;7.87;;;4.43;;
5831;SDS011;50943;51.448;7.646;2023-02-13T04:46:41;7.33;;;4.10;;
5831;SDS011;50943;51.448;7.646;2023-02-13T04:49:08;6.40;;;4.20;;
5831;SDS011;50943;51.448;7.646;2023-02-13T04:51:35;7.70;;;4.17;;
5831;SDS011;50943;51.448;7.646;2023-02-13T04:54:02;8.47;;;4.40;;
5831;SDS011;50943;51.448;7.646;2023-02-13T04:56:31;5.80;;;3.80;;
5831;SDS011;50943;51.448;7.646;2023-02-13T04:58:59;6.80;;;4.17;;
5831;SDS011;50943;51.448;7.646;2023-02-13T05:01:27;8.00;;;4.20;;
5831;SDS011;50943;51.448;7.646;2023-02-13T05:03:54;6.13;;;3.90;;
5831;SDS011;50943;51.448;7.646;2023-02-13T05:06:23;9.30;;;5.43;;
5831;SDS011;50943;51.448;7.646;2023-02-13T05:08:49;8.87;;;4.93;;
5831;SDS011;50943;51.448;7.646;2023-02-13T05:11:16;7.40;;;4.40;;
5831;SDS011;50943;51.448;7.646;2023-02-13T05:13:45;12.17;;;5.90;;
5831;SDS011;50943;51.448;7.646;2023-02-13T05:16:15;7.83;;;4.47;;
5831;SDS011;50943;51.448;7.646;2023-02-13T05:18:42;7.00;;;3.90;;
5831;SDS011;50943;51.448;7.646;2023-02-13T05:21:10;11.30;;;5.33;;
5831;SDS011;50943;51.448;7.646;2023-02-13T05:23:57;9.80;;;5.17;;
5831;SDS011;50943;51.448;7.646;2023-02-13T05:26:23;10.53;;;5.43;;
5831;SDS011;50943;51.448;7.646;2023-02-13T05:28:52;8.53;;;4.30;;
5831;SDS011;50943;51.448;7.646;2023-02-13T05:31:37;12.13;;;5.70;;
5831;SDS011;50943;51.448;7.646;2023-02-13T05:34:03;9.80;;;5.40;;
5831;SDS011;50943;51.448;7.646;2023-02-13T05:36:30;9.10;;;5.00;;
5831;SDS011;50943;51.448;7.646;2023-02-13T05:38:56;10.00;;;5.47;;
5831;SDS011;50943;51.448;7.646;2023-02-13T05:41:23;8.43;;;5.33;;
5831;SDS011;50943;51.448;7.646;2023-02-13T05:43:50;10.07;;;5.03;;
5831;SDS011;50943;51.448;7.646;2023-02-13T05:46:16;10.60;;;5.70;;
5831;SDS011;50943;51.448;7.646;2023-02-13T05:48:44;8.97;;;4.60;;
5831;SDS011;50943;51.448;7.646;2023-02-13T05:51:11;11.27;;;6.03;;
5831;SDS011;50943;51.448;7.646;2023-02-13T05:53:40;11.70;;;5.67;;
5831;SDS011;50943;51.448;7.646;2023-02-13T05:56:07;11.93;;;5.40;;
5831;SDS011;50943;51.448;7.646;2023-02-13T05:58:36;9.03;;;4.60;;
5831;SDS011;50943;51.448;7.646;2023-02-13T06:01:04;10.27;;;4.73;;
5831;SDS011;50943;51.448;7.646;2023-02-13T06:03:31;11.20;;;6.20;;
5831;SDS011;50943;51.448;7.646;2023-02-13T06:05:59;12.93;;;5.77;;
5831;SDS011;50943;51.448;7.646;2023-02-13T06:08:26;11.17;;;5.33;;
5831;SDS011;50943;51.448;7.646;2023-02-13T06:10:55;12.00;;;6.70;;
5831;SDS011;50943;51.448;7.646;2023-02-13T06:13:22;11.47;;;6.20;;
5831;SDS011;50943;51.448;7.646;2023-02-13T06:15:49;13.93;;;5.83;;
5831;SDS011;50943;51.448;7.646;2023-02-13T06:18:16;14.27;;;6.60;;
5831;SDS011;50943;51.448;7.646;2023-02-13T06:20:42;11.37;;;6.20;;
5831;SDS011;50943;51.448;7.646;2023-02-13T06:23:10;13.93;;;7.03;;
5831;SDS011;50943;51.448;7.646;2023-02-13T06:25:37;13.80;;;6.77;;
5831;SDS011;50943;51.448;7.646;2023-02-13T06:28:04;12.23;;;6.53;;
5831;SDS011;50943;51.448;7.646;2023-02-13T06:30:31;14.13;;;6.50;;
5831;SDS011;50943;51.448;7.646;2023-02-13T06:32:59;11.27;;;6.07;;
5831;SDS011;50943;51.448;7.646;2023-02-13T06:35:26;13.70;;;6.57;;
5831;SDS011;50943;51.448;7.646;2023-02-13T06:37:53;12.50;;;6.30;;
5831;SDS011;50943;51.448;7.646;2023-02-13T06:40:21;12.57;;;6.70;;
5831;SDS011;50943;51.448;7.646;2023-02-13T06:42:49;13.43;;;6.60;;
5831;SDS011;50943;51.448;7.646;2023-02-13T06:45:16;14.30;;;6.33;;
5831;SDS011;50943;51.448;7.646;2023-02-13T06:47:43;13.17;;;6.43;;
5831;SDS011;50943;51.448;7.646;2023-02-13T06:50:12;13.73;;;6.37;;
5831;SDS011;50943;51.448;7.646;2023-02-13T06:52:44;12.73;;;6.07;;
5831;SDS011;50943;51.448;7.646;2023-02-13T06:55:11;14.03;;;6.83;;
5831;SDS011;50943;51.448;7.646;2023-02-13T06:57:40;16.60;;;7.90;;
5831;SDS011;50943;51.448;7.646;2023-02-13T07:00:09;17.33;;;9.77;;
5831;SDS011;50943;51.448;7.646;2023-02-13T07:02:39;22.60;;;9.30;;
5831;SDS011;50943;51.448;7.646;2023-02-13T07:05:15;17.53;;;8.00;;
5831;SDS011;50943;51.448;7.646;2023-02-13T07:07:44;11.73;;;6.40;;
5831;SDS011;50943;51.448;7.646;2023-02-13T07:10:13;15.83;;;6.90;;
5831;SDS011;50943;51.448;7.646;2023-02-13T07:12:41;15.23;;;6.60;;
5831;SDS011;50943;51.448;7.646;2023-02-13T07:15:10;12.83;;;6.43;;
5831;SDS011;50943;51.448;7.646;2023-02-13T07:17:36;13.20;;;6.93;;
5831;SDS011;50943;51.448;7.646;2023-02-13T07:20:03;15.80;;;7.50;;
5831;SDS011;50943;51.448;7.646;2023-02-13T07:22:33;14.90;;;7.60;;
5831;SDS011;50943;51.448;7.646;2023-02-13T07:25:00;15.90;;;8.60;;
5831;SDS011;50943;51.448;7.646;2023-02-13T07:27:26;13.27;;;7.03;;
5831;SDS011;50943;51.448;7.646;2023-02-13T07:29:56;13.53;;;7.10;;
5831;SDS011;50943;51.448;7.646;2023-02-13T07:32:23;17.10;;;8.60;;
5831;SDS011;50943;51.448;7.646;2023-02-13T07:34:50;16.47;;;8.80;;
5831;SDS011;50943;51.448;7.646;2023-02-13T07:37:16;16.50;;;7.43;;
5831;SDS011;50943;51.448;7.646;2023-02-13T07:39:43;13.97;;;7.30;;
5831;SDS011;50943;51.448;7.646;2023-02-13T07:42:09;15.17;;;7.07;;
5831;SDS011;50943;51.448;7.646;2023-02-13T07:44:36;19.20;;;8.73;;
5831;SDS011;50943;51.448;7.646;2023-02-13T07:47:09;16.43;;;8.57;;
5831;SDS011;50943;51.448;7.646;2023-02-13T07:49:37;17.23;;;8.70;;
5831;SDS011;50943;51.448;7.646;2023-02-13T07:52:04;17.93;;;9.67;;
5831;SDS011;50943;51.448;7.646;2023-02-13T07:54:31;18.00;;;9.00;;
5831;SDS011;50943;51.448;7.646;2023-02-13T07:56:58;15.03;;;8.23;;
5831;SDS011;50943;51.448;7.646;2023-02-13T07:59:25;17.77;;;8.43;;
5831;SDS011;50943;51.448;7.646;2023-02-13T08:01:51;18.47;;;9.03;;
5831;SDS011;50943;51.448;7.646;2023-02-13T08:04:19;16.17;;;9.27;;
5831;SDS011;50943;51.448;7.646;2023-02-13T08:06:46;16.30;;;8.03;;
5831;SDS011;50943;51.448;7.646;2023-02-13T08:09:16;15.97;;;8.30;;
5831;SDS011;50943;51.448;7.646;2023-02-13T08:12:02;16.60;;;9.10;;
5831;SDS011;50943;51.448;7.646;2023-02-13T08:14:30;15.93;;;8.63;;
5831;SDS011;50943;51.448;7.646;2023-02-13T08:16:57;18.80;;;8.33;;
5831;SDS011;50943;51.448;7.646;2023-02-13T08:19:25;17.17;;;8.50;;
5831;SDS011;50943;51.448;7.646;2023-02-13T08:21:51;17.50;;;9.00;;
5831;SDS011;50943;51.448;7.646;2023-02-13T08:24:18;16.70;;;8.47;;
5831;SDS011;50943;51.448;7.646;2023-02-13T08:26:45;18.83;;;9.80;;
5831;SDS011;50943;51.448;7.646;2023-02-13T08:29:11;18.10;;;9.10;;
5831;SDS011;50943;51.448;7.646;2023-02-13T08:31:38;17.37;;;9.20;;
5831;SDS011;50943;51.448;7.646;2023-02-13T08:34:04;15.43;;;8.17;;
5831;SDS011;50943;51.448;7.646;2023-02-13T08:36:32;16.70;;;9.10;;
5831;SDS011;50943;51.448;7.646;2023-02-13T08:38:59;20.63;;;9.37;;
5831;SDS011;50943;51.448;7.646;2023-02-13T08:41:25;18.37;;;9.27;;
5831;SDS011;50943;51.448;7.646;2023-02-13T08:43:52;19.67;;;10.33;;
5831;SDS011;50943;51.448;7.646;2023-02-13T08:46:19;17.67;;;9.60;;
5831;SDS011;50943;51.448;7.646;2023-02-13T08:48:45;19.50;;;10.03;;
5831;SDS011;50943;51.448;7.646;2023-02-13T08:51:12;17.00;;;9.30;;
5831;SDS011;50943;51.448;7.646;2023-02-13T08:53:41;17.60;;;9.17;;
5831;SDS011;50943;51.448;7.646;2023-02-13T08:56:08;19.33;;;9.40;;
5831;SDS011;50943;51.448;7.646;2023-02-13T08:58:35;18.20;;;10.50;;
5831;SDS011;50943;51.448;7.646;2023-02-13T09:01:03;17.70;;;9.60;;
5831;SDS011;50943;51.448;7.646;2023-02-13T09:03:30;16.27;;;8.97;;
5831;SDS011;50943;51.448;7.646;2023-02-13T09:05:57;17.37;;;10.10;;
5831;SDS011;50943;51.448;7.646;2023-02-13T09:08:24;19.57;;;10.07;;
5831;SDS011;50943;51.448;7.646;2023-02-13T09:10:55;17.27;;;9.50;;
5831;SDS011;50943;51.448;7.646;2023-02-13T09:13:23;17.57;;;9.47;;
5831;SDS011;50943;51.448;7.646;2023-02-13T09:15:49;17.93;;;9.50;;
5831;SDS011;50943;51.448;7.646;2023-02-13T09:18:16;19.63;;;9.40;;
5831;SDS011;50943;51.448;7.646;2023-02-13T09:20:42;18.50;;;10.20;;
5831;SDS011;50943;51.448;7.646;2023-02-13T09:23:09;18.83;;;8.97;;
5831;SDS011;50943;51.448;7.646;2023-02-13T09:25:36;19.03;;;9.40;;
5831;SDS011;50943;51.448;7.646;2023-02-13T09:28:04;14.67;;;8.23;;
5831;SDS011;50943;51.448;7.646;2023-02-13T09:30:31;16.07;;;8.80;;
5831;SDS011;50943;51.448;7.646;2023-02-13T09:32:57;15.37;;;8.70;;
5831;SDS011;50943;51.448;7.646;2023-02-13T09:35:24;19.57;;;9.00;;
5831;SDS011;50943;51.448;7.646;2023-02-13T09:37:50;16.57;;;8.40;;
5831;SDS011;50943;51.448;7.646;2023-02-13T09:40:18;13.07;;;8.20;;
5831;SDS011;50943;51.448;7.646;2023-02-13T09:42:48;17.70;;;10.23;;
5831;SDS011;50943;51.448;7.646;2023-02-13T09:45:16;19.47;;;9.60;;
5831;SDS011;50943;51.448;7.646;2023-02-13T09:47:45;15.70;;;9.83;;
5831;SDS011;50943;51.448;7.646;2023-02-13T09:50:13;18.53;;;10.17;;
5831;SDS011;50943;51.448;7.646;2023-02-13T09:52:43;16.97;;;9.23;;
5831;SDS011;50943;51.448;7.646;2023-02-13T09:55:14;14.57;;;7.73;;
5831;SDS011;50943;51.448;7.646;2023-02-13T09:57:43;19.60;;;9.63;;
5831;SDS011;50943;51.448;7.646;2023-02-13T10:00:14;14.33;;;8.50;;
5831;SDS011;50943;51.448;7.646;2023-02-13T10:05:45;17.67;;;7.93;;
5831;SDS011;50943;51.448;7.646;2023-02-13T10:08:17;14.30;;;7.60;;
5831;SDS011;50943;51.448;7.646;2023-02-13T10:10:50;13.80;;;7.70;;
5831;SDS011;50943;51.448;7.646;2023-02-13T10:16:16;19.00;;;8.13;;
5831;SDS011;50943;51.448;7.646;2023-02-13T10:18:46;14.80;;;8.10;;
5831;SDS011;50943;51.448;7.646;2023-02-13T10:21:14;12.83;;;7.27;;
5831;SDS011;50943;51.448;7.646;2023-02-13T10:23:45;17.00;;;8.23;;
5831;SDS011;50943;51.448;7.646;2023-02-13T10:26:15;17.13;;;7.50;;
5831;SDS011;50943;51.448;7.646;2023-02-13T10:28:45;13.53;;;7.30;;
5831;SDS011;50943;51.448;7.646;2023-02-13T10:31:38;12.17;;;6.73;;
5831;SDS011;50943;51.448;7.646;2023-02-13T10:34:09;14.03;;;7.63;;
5831;SDS011;50943;51.448;7.646;2023-02-13T10:36:42;12.87;;;7.33;;
5831;SDS011;50943;51.448;7.646;2023-02-13T10:39:13;13.27;;;7.60;;
5831;SDS011;50943;51.448;7.646;2023-02-13T10:41:48;13.33;;;6.40;;
5831;SDS011;50943;51.448;7.646;2023-02-13T10:44:27;13.40;;;7.10;;
5831;SDS011;50943;51.448;7.646;2023-02-13T10:47:05;12.63;;;7.07;;
5831;SDS011;50943;51.448;7.646;2023-02-13T10:49:43;13.20;;;7.70;;
5831;SDS011;50943;51.448;7.646;2023-02-13T10:52:17;11.63;;;6.63;;
5831;SDS011;50943;51.448;7.646;2023-02-13T10:54:56;13.70;;;6.80;;
5831;SDS011;50943;51.448;7.646;2023-02-13T10:57:30;12.87;;;6.37;;
5831;SDS011;50943;51.448;7.646;2023-02-13T11:00:04;13.53;;;6.13;;
5831;SDS011;50943;51.448;7.646;2023-02-13T11:02:37;12.57;;;6.40;;
5831;SDS011;50943;51.448;7.646;2023-02-13T11:05:11;11.03;;;6.40;;
5831;SDS011;50943;51.448;7.646;2023-02-13T11:07:41;9.93;;;5.93;;
5831;SDS011;50943;51.448;7.646;2023-02-13T11:10:12;13.23;;;6.47;;
5831;SDS011;50943;51.448;7.646;2023-02-13T11:12:41;8.87;;;5.30;;
5831;SDS011;50943;51.448;7.646;2023-02-13T11:15:14;10.70;;;6.70;;
5831;SDS011;50943;51.448;7.646;2023-02-13T11:17:48;10.80;;;6.10;;
5831;SDS011;50943;51.448;7.646;2023-02-13T11:20:26;11.80;;;6.17;;
5831;SDS011;50943;51.448;7.646;2023-02-13T11:22:55;11.20;;;6.50;;
5831;SDS011;50943;51.448;7.646;2023-02-13T11:25:24;11.07;;;6.13;;
5831;SDS011;50943;51.448;7.646;2023-02-13T11:27:53;11.70;;;6.07;;
5831;SDS011;50943;51.448;7.646;2023-02-13T11:30:33;12.07;;;6.50;;
5831;SDS011;50943;51.448;7.646;2023-02-13T11:33:03;8.50;;;5.67;;
5831;SDS011;50943;51.448;7.646;2023-02-13T11:35:31;11.37;;;5.60;;
5831;SDS011;50943;51.448;7.646;2023-02-13T11:38:12;12.30;;;6.03;;
5831;SDS011;50943;51.448;7.646;2023-02-13T11:40:46;9.67;;;5.80;;
5831;SDS011;50943;51.448;7.646;2023-02-13T11:43:16;8.37;;;5.43;;
5831;SDS011;50943;51.448;7.646;2023-02-13T11:45:44;11.33;;;5.90;;
5831;SDS011;50943;51.448;7.646;2023-02-13T11:48:19;10.43;;;5.87;;
5831;SDS011;50943;51.448;7.646;2023-02-13T11:50:49;10.20;;;5.37;;
5831;SDS011;50943;51.448;7.646;2023-02-13T11:53:17;7.20;;;4.97;;
5831;SDS011;50943;51.448;7.646;2023-02-13T11:55:45;8.20;;;4.70;;
5831;SDS011;50943;51.448;7.646;2023-02-13T11:58:27;9.57;;;5.80;;
5831;SDS011;50943;51.448;7.646;2023-02-13T12:01:06;9.53;;;4.80;;
5831;SDS011;50943;51.448;7.646;2023-02-13T12:03:36;8.30;;;4.50;;
5831;SDS011;50943;51.448;7.646;2023-02-13T12:06:05;6.87;;;4.03;;
5831;SDS011;50943;51.448;7.646;2023-02-13T12:08:37;7.73;;;4.67;;
5831;SDS011;50943;51.448;7.646;2023-02-13T12:11:06;11.33;;;4.50;;
5831;SDS011;50943;51.448;7.646;2023-02-13T12:13:40;8.90;;;4.17;;
5831;SDS011;50943;51.448;7.646;2023-02-13T12:16:09;8.23;;;4.13;;
5831;SDS011;50943;51.448;7.646;2023-02-13T12:18:40;8.77;;;4.50;;
5831;SDS011;50943;51.448;7.646;2023-02-13T12:21:21;8.00;;;4.30;;
5831;SDS011;50943;51.448;7.646;2023-02-13T12:23:56;12.00;;;6.90;;
5831;SDS011;50943;51.448;7.646;2023-02-13T12:26:30;8.83;;;4.73;;
5831;SDS011;50943;51.448;7.646;2023-02-13T12:29:05;7.90;;;4.07;;
5831;SDS011;50943;51.448;7.646;2023-02-13T12:31:40;5.97;;;3.80;;
5831;SDS011;50943;51.448;7.646;2023-02-13T12:37:10;8.13;;;4.33;;
5831;SDS011;50943;51.448;7.646;2023-02-13T12:39:43;9.63;;;3.93;;
5831;SDS011;50943;51.448;7.646;2023-02-13T12:42:20;7.83;;;4.70;;
5831;SDS011;50943;51.448;7.646;2023-02-13T12:45:09;7.50;;;4.53;;
5831;SDS011;50943;51.448;7.646;2023-02-13T12:47:44;7.40;;;4.97;;
5831;SDS011;50943;51.448;7.646;2023-02-13T12:50:25;7.80;;;4.80;;
5831;SDS011;50943;51.448;7.646;2023-02-13T12:52:59;6.20;;;3.93;;
5831;SDS011;50943;51.448;7.646;2023-02-13T12:55:44;9.47;;;4.13;;
5831;SDS011;50943;51.448;7.646;2023-02-13T12:58:20;8.80;;;4.67;;
5831;SDS011;50943;51.448;7.646;2023-02-13T13:00:57;9.10;;;4.57;;
5831;SDS011;50943;51.448;7.646;2023-02-13T13:03:33;7.37;;;3.80;;
5831;SDS011;50943;51.448;7.646;2023-02-13T13:06:07;7.10;;;4.00;;
5831;SDS011;50943;51.448;7.646;2023-02-13T13:08:52;5.90;;;4.00;;
5831;SDS011;50943;51.448;7.646;2023-02-13T13:11:32;7.50;;;4.23;;
5831;SDS011;50943;51.448;7.646;2023-02-13T13:14:12;8.10;;;5.17;;
5831;SDS011;50943;51.448;7.646;2023-02-13T13:16:45;6.00;;;3.90;;
5831;SDS011;50943;51.448;7.646;2023-02-13T13:19:19;11.13;;;5.07;;
5831;SDS011;50943;51.448;7.646;2023-02-13T13:21:52;7.40;;;4.33;;
5831;SDS011;50943;51.448;7.646;2023-02-13T13:24:26;7.23;;;4.90;;
5831;SDS011;50943;51.448;7.646;2023-02-13T13:26:59;7.47;;;4.50;;
5831;SDS011;50943;51.448;7.646;2023-02-13T13:29:26;6.97;;;4.13;;
5831;SDS011;50943;51.448;7.646;2023-02-13T13:31:56;10.30;;;4.80;;
5831;SDS011;50943;51.448;7.646;2023-02-13T13:34:26;7.60;;;4.30;;
5831;SDS011;50943;51.448;7.646;2023-02-13T13:36:55;7.00;;;4.33;;
5831;SDS011;50943;51.448;7.646;2023-02-13T13:39:31;5.90;;;4.10;;
5831;SDS011;50943;51.448;7.646;2023-02-13T13:42:04;10.67;;;4.93;;
5831;SDS011;50943;51.448;7.646;2023-02-13T13:44:48;7.77;;;5.10;;
5831;SDS011;50943;51.448;7.646;2023-02-13T13:47:27;8.77;;;5.00;;
5831;SDS011;50943;51.448;7.646;2023-02-13T13:50:03;6.67;;;4.50;;
5831;SDS011;50943;51.448;7.646;2023-02-13T13:52:32;7.80;;;4.60;;
5831;SDS011;50943;51.448;7.646;2023-02-13T13:55:03;7.20;;;4.80;;
5831;SDS011;50943;51.448;7.646;2023-02-13T14:00:28;6.90;;;4.30;;
5831;SDS011;50943;51.448;7.646;2023-02-13T14:06:04;6.17;;;4.20;;
5831;SDS011;50943;51.448;7.646;2023-02-13T14:11:36;6.47;;;4.47;;
5831;SDS011;50943;51.448;7.646;2023-02-13T14:20:24;6.40;;;4.37;;
5831;SDS011;50943;51.448;7.646;2023-02-13T14:22:55;7.17;;;4.03;;
5831;SDS011;50943;51.448;7.646;2023-02-13T14:25:23;4.70;;;3.87;;
5831;SDS011;50943;51.448;7.646;2023-02-13T14:27:54;6.30;;;4.40;;
5831;SDS011;50943;51.448;7.646;2023-02-13T14:30:25;8.60;;;4.50;;
5831;SDS011;50943;51.448;7.646;2023-02-13T14:32:53;6.57;;;4.10;;
5831;SDS011;50943;51.448;7.646;2023-02-13T14:35:22;5.97;;;4.33;;
5831;SDS011;50943;51.448;7.646;2023-02-13T14:37:50;7.90;;;5.30;;
5831;SDS011;50943;51.448;7.646;2023-02-13T14:43:20;6.03;;;4.07;;
5831;SDS011;50943;51.448;7.646;2023-02-13T14:46:15;7.20;;;4.57;;
5831;SDS011;50943;51.448;7.646;2023-02-13T14:48:56;7.23;;;4.77;;
5831;SDS011;50943;51.448;7.646;2023-02-13T14:51:28;6.57;;;4.60;;
5831;SDS011;50943;51.448;7.646;2023-02-13T14:54:01;6.97;;;4.17;;
5831;SDS011;50943;51.448;7.646;2023-02-13T14:56:30;7.50;;;4.47;;
5831;SDS011;50943;51.448;7.646;2023-02-13T14:58:59;6.13;;;4.47;;
5831;SDS011;50943;51.448;7.646;2023-02-13T15:01:31;8.70;;;4.20;;
5831;SDS011;50943;51.448;7.646;2023-02-13T15:04:01;8.37;;;5.00;;
5831;SDS011;50943;51.448;7.646;2023-02-13T15:06:32;7.10;;;4.53;;
5831;SDS011;50943;51.448;7.646;2023-02-13T15:09:02;7.17;;;3.80;;
5831;SDS011;50943;51.448;7.646;2023-02-13T15:11:33;6.63;;;4.27;;
5831;SDS011;50943;51.448;7.646;2023-02-13T15:14:15;5.30;;;4.13;;
5831;SDS011;50943;51.448;7.646;2023-02-13T15:16:51;6.00;;;4.40;;
5831;SDS011;50943;51.448;7.646;2023-02-13T15:19:21;6.60;;;4.27;;
5831;SDS011;50943;51.448;7.646;2023-02-13T15:21:49;7.10;;;4.30;;
5831;SDS011;50943;51.448;7.646;2023-02-13T15:24:18;5.60;;;3.97;;
5831;SDS011;50943;51.448;7.646;2023-02-13T15:26:48;7.27;;;4.90;;
5831;SDS011;50943;51.448;7.646;2023-02-13T15:29:17;10.23;;;4.23;;
5831;SDS011;50943;51.448;7.646;2023-02-13T15:31:45;8.70;;;4.40;;
5831;SDS011;50943;51.448;7.646;2023-02-13T15:34:19;6.23;;;3.97;;
5831;SDS011;50943;51.448;7.646;2023-02-13T15:36:47;9.83;;;5.00;;
5831;SDS011;50943;51.448;7.646;2023-02-13T15:39:15;5.77;;;4.10;;
5831;SDS011;50943;51.448;7.646;2023-02-13T15:41:43;6.20;;;4.40;;
5831;SDS011;50943;51.448;7.646;2023-02-13T15:44:15;6.57;;;4.50;;